createdAt,value
2022-10-21T00:00:17.931Z,8.70
2022-10-21T00:02:44.860Z,9.30
2022-10-21T00:05:11.544Z,8.38
2022-10-21T00:07:38.240Z,9.35
2022-10-21T00:10:05.909Z,8.82
2022-10-21T00:12:33.127Z,8.45
2022-10-21T00:14:59.963Z,8.80
2022-10-21T00:17:26.641Z,9.38
2022-10-21T00:19:53.397Z,9.02
2022-10-21T00:22:20.007Z,10.07
2022-10-21T00:24:46.644Z,10.07
2022-10-21T00:27:13.558Z,8.85
2022-10-21T00:29:40.200Z,9.30
2022-10-21T00:32:07.115Z,10.23
2022-10-21T00:34:34.026Z,9.23
2022-10-21T00:37:00.879Z,10.15
2022-10-21T00:39:27.552Z,9.45
2022-10-21T00:41:55.315Z,9.73
2022-10-21T00:44:22.035Z,9.68
2022-10-21T00:46:56.532Z,9.32
2022-10-21T00:49:43.966Z,8.88
2022-10-21T00:52:17.900Z,8.90
2022-10-21T00:54:46.669Z,9.60
2022-10-21T00:57:13.454Z,9.95
2022-10-21T00:59:44.501Z,9.32
2022-10-21T01:02:11.325Z,9.57
2022-10-21T01:04:38.228Z,9.73
2022-10-21T01:07:05.584Z,9.55
2022-10-21T01:09:32.760Z,10.93
2022-10-21T01:12:02.079Z,10.90
2022-10-21T01:14:37.619Z,11.73
2022-10-21T01:17:44.996Z,11.88
2022-10-21T01:23:09.304Z,10.65
2022-10-21T01:25:35.967Z,10.43
2022-10-21T01:28:17.835Z,9.65
2022-10-21T01:31:05.734Z,10.13
2022-10-21T01:33:45.443Z,10.98
2022-10-21T01:36:27.236Z,10.68
2022-10-21T01:39:14.955Z,10.43
2022-10-21T01:41:46.360Z,10.82
2022-10-21T01:44:21.193Z,10.05
2022-10-21T01:46:52.361Z,10.32
2022-10-21T01:49:35.190Z,10.65
2022-10-21T01:52:03.826Z,10.57
2022-10-21T01:54:37.459Z,11.32
2022-10-21T01:57:06.499Z,10.00
2022-10-21T01:59:34.839Z,10.77
2022-10-21T02:02:04.850Z,9.85
2022-10-21T02:04:34.010Z,9.88
2022-10-21T02:07:04.059Z,10.65
2022-10-21T02:12:05.508Z,10.23
2022-10-21T02:14:39.574Z,10.50
2022-10-21T02:17:08.815Z,9.45
2022-10-21T02:19:35.493Z,10.65
2022-10-21T02:22:04.798Z,10.23
2022-10-21T02:24:47.461Z,9.73
2022-10-21T02:27:14.466Z,10.18
2022-10-21T02:29:45.109Z,10.27
2022-10-21T02:32:27.050Z,10.77
2022-10-21T02:35:08.953Z,10.63
2022-10-21T02:37:51.185Z,10.75
2022-10-21T02:40:23.995Z,9.73
2022-10-21T02:42:55.382Z,10.23
2022-10-21T02:45:22.960Z,10.73
2022-10-21T02:47:50.550Z,10.00
2022-10-21T02:50:17.311Z,10.32
2022-10-21T02:52:44.023Z,10.93
2022-10-21T02:55:10.703Z,10.25
2022-10-21T02:57:37.497Z,10.75
2022-10-21T03:00:06.351Z,10.57
2022-10-21T03:02:33.024Z,10.15
2022-10-21T03:04:59.646Z,11.05
2022-10-21T03:07:26.264Z,10.20
2022-10-21T03:09:52.860Z,10.70
2022-10-21T03:12:19.506Z,11.15
2022-10-21T03:14:46.106Z,11.63
2022-10-21T03:17:12.699Z,12.15
2022-10-21T03:19:39.280Z,12.10
2022-10-21T03:22:06.175Z,12.18
2022-10-21T03:24:32.874Z,12.52
2022-10-21T03:26:59.485Z,12.45
2022-10-21T03:29:26.130Z,12.55
2022-10-21T03:31:53.010Z,13.50
2022-10-21T03:34:19.660Z,12.10
2022-10-21T03:36:46.471Z,13.00
2022-10-21T03:39:13.487Z,13.52
2022-10-21T03:41:40.461Z,12.40
2022-10-21T03:44:07.126Z,13.40
2022-10-21T03:46:33.743Z,12.85
2022-10-21T03:49:04.413Z,14.30
2022-10-21T03:51:33.123Z,12.90
2022-10-21T03:53:59.774Z,14.15
2022-10-21T03:56:26.469Z,14.48
2022-10-21T03:58:57.799Z,14.35
2022-10-21T04:01:26.086Z,13.70
2022-10-21T04:03:53.205Z,13.27
2022-10-21T04:06:20.600Z,12.95
2022-10-21T04:08:47.643Z,13.80
2022-10-21T04:11:14.319Z,12.35
2022-10-21T04:13:40.979Z,14.25
2022-10-21T04:16:12.457Z,12.90
2022-10-21T04:18:39.111Z,13.82
2022-10-21T04:21:05.794Z,13.15
2022-10-21T04:23:32.557Z,13.48
2022-10-21T04:25:59.232Z,12.27
2022-10-21T04:28:25.985Z,12.70
2022-10-21T04:30:53.097Z,13.75
2022-10-21T04:33:19.760Z,13.63
2022-10-21T04:35:46.451Z,13.90
2022-10-21T04:38:13.114Z,14.18
2022-10-21T04:40:39.790Z,12.77
2022-10-21T04:43:06.642Z,13.00
2022-10-21T04:45:33.497Z,13.65
2022-10-21T04:48:00.106Z,13.50
2022-10-21T04:50:26.878Z,13.80
2022-10-21T04:52:53.493Z,14.13
2022-10-21T04:55:20.666Z,14.98
2022-10-21T04:57:47.327Z,16.55
2022-10-21T05:00:14.383Z,15.35
2022-10-21T05:02:41.479Z,15.15
2022-10-21T05:05:08.820Z,16.38
2022-10-21T05:07:35.453Z,16.70
2022-10-21T05:10:02.144Z,16.60
2022-10-21T05:12:28.821Z,15.88
2022-10-21T05:14:55.452Z,14.65
2022-10-21T05:17:22.088Z,15.57
2022-10-21T05:19:48.697Z,14.13
2022-10-21T05:22:15.369Z,14.43
2022-10-21T05:24:41.942Z,15.60
2022-10-21T05:27:08.586Z,13.65
2022-10-21T05:29:35.201Z,14.68
2022-10-21T05:32:01.851Z,14.45
2022-10-21T05:34:28.583Z,13.57
2022-10-21T05:36:55.245Z,13.20
2022-10-21T05:39:21.914Z,13.93
2022-10-21T05:41:49.765Z,13.43
2022-10-21T05:44:16.437Z,14.70
2022-10-21T05:46:43.020Z,14.27
2022-10-21T05:49:09.761Z,14.10
2022-10-21T05:51:39.903Z,13.40
2022-10-21T05:54:06.620Z,13.18
2022-10-21T05:56:33.415Z,13.32
2022-10-21T05:59:00.055Z,13.55
2022-10-21T06:01:27.746Z,12.73
2022-10-21T06:03:54.352Z,13.95
2022-10-21T06:06:21.454Z,15.20
2022-10-21T06:08:51.402Z,13.40
2022-10-21T06:11:19.609Z,11.95
2022-10-21T06:13:47.084Z,13.23
2022-10-21T06:16:14.209Z,12.55
2022-10-21T06:18:41.889Z,13.13
2022-10-21T06:21:08.806Z,12.95
2022-10-21T06:23:36.301Z,14.50
2022-10-21T06:26:02.879Z,13.10
2022-10-21T06:28:32.061Z,12.55
2022-10-21T06:30:58.815Z,13.45
2022-10-21T06:33:27.293Z,13.27
2022-10-21T06:35:55.072Z,13.27
2022-10-21T06:38:22.029Z,12.98
2022-10-21T06:40:48.902Z,13.07
2022-10-21T06:43:16.428Z,12.98
2022-10-21T06:45:43.619Z,13.52
2022-10-21T06:48:10.420Z,12.98
2022-10-21T06:50:38.230Z,13.32
2022-10-21T06:53:05.406Z,12.77
2022-10-21T06:55:32.304Z,13.45
2022-10-21T06:57:59.778Z,13.65
2022-10-21T07:00:26.697Z,13.32
2022-10-21T07:02:53.510Z,12.95
2022-10-21T07:05:20.505Z,13.95
2022-10-21T07:07:47.141Z,12.95
2022-10-21T07:10:13.854Z,12.60
2022-10-21T07:12:40.532Z,13.20
2022-10-21T07:15:07.582Z,13.60
2022-10-21T07:17:34.215Z,13.05
2022-10-21T07:20:00.876Z,12.85
2022-10-21T07:22:27.515Z,13.02
2022-10-21T07:24:54.317Z,13.00
2022-10-21T07:27:20.928Z,13.35
2022-10-21T07:29:47.646Z,13.55
2022-10-21T07:32:14.758Z,13.27
2022-10-21T07:34:41.420Z,13.65
2022-10-21T07:37:08.071Z,13.30
2022-10-21T07:39:35.163Z,13.00
2022-10-21T07:42:02.309Z,12.18
2022-10-21T07:44:28.994Z,13.38
2022-10-21T07:46:55.924Z,12.68
2022-10-21T07:49:23.835Z,11.93
2022-10-21T07:51:50.700Z,12.32
2022-10-21T07:54:19.014Z,11.90
2022-10-21T07:56:48.744Z,12.23
2022-10-21T07:59:16.464Z,12.18
2022-10-21T08:01:45.747Z,11.13
2022-10-21T08:04:15.808Z,11.25
2022-10-21T08:06:43.755Z,11.85
2022-10-21T08:09:10.852Z,11.73
2022-10-21T08:11:38.219Z,11.73
2022-10-21T08:14:07.103Z,11.18
2022-10-21T08:16:33.915Z,12.30
2022-10-21T08:19:01.729Z,11.05
2022-10-21T08:21:29.161Z,12.27
2022-10-21T08:23:55.750Z,11.20
2022-10-21T08:26:22.435Z,12.30
2022-10-21T08:28:49.170Z,12.20
2022-10-21T08:31:19.159Z,11.82
2022-10-21T08:33:46.674Z,13.27
2022-10-21T08:36:15.628Z,11.90
2022-10-21T08:38:42.444Z,12.10
2022-10-21T08:41:36.839Z,11.70
2022-10-21T08:44:21.781Z,11.55
2022-10-21T08:46:58.103Z,12.27
2022-10-21T08:52:04.210Z,12.50
2022-10-21T08:54:43.048Z,12.05
2022-10-21T08:57:11.904Z,11.27
2022-10-21T08:59:42.097Z,11.00
2022-10-21T09:02:24.029Z,10.73
2022-10-21T09:05:06.954Z,11.20
2022-10-21T09:07:44.572Z,10.13
2022-10-21T09:10:35.934Z,9.80
2022-10-21T09:13:12.822Z,10.85
2022-10-21T09:15:55.152Z,9.40
2022-10-21T09:18:31.910Z,10.80
2022-10-21T09:21:29.096Z,9.82
2022-10-21T09:24:11.970Z,9.85
2022-10-21T09:26:41.824Z,10.38
2022-10-21T09:29:20.936Z,10.10
2022-10-21T09:31:54.355Z,9.98
2022-10-21T09:34:31.141Z,11.43
2022-10-21T09:36:59.621Z,11.50
2022-10-21T09:39:41.972Z,9.77
2022-10-21T09:42:29.209Z,10.43
2022-10-21T09:44:59.890Z,9.77
2022-10-21T09:47:26.682Z,11.10
2022-10-21T09:50:13.805Z,9.55
2022-10-21T09:52:49.183Z,10.18
2022-10-21T09:55:16.227Z,10.37
2022-10-21T09:57:51.548Z,8.85
2022-10-21T10:00:18.415Z,10.80
2022-10-21T10:02:48.012Z,8.70
2022-10-21T10:05:33.800Z,8.93
2022-10-21T10:08:00.547Z,9.15
2022-10-21T10:10:35.627Z,9.85
2022-10-21T10:13:02.229Z,9.50
2022-10-21T10:15:35.143Z,9.40
2022-10-21T10:18:02.124Z,9.02
2022-10-21T10:20:29.324Z,9.32
2022-10-21T10:23:09.772Z,8.90
2022-10-21T10:25:39.058Z,9.02
2022-10-21T10:28:20.685Z,9.13
2022-10-21T10:30:52.503Z,9.85
2022-10-21T10:33:19.721Z,9.57
2022-10-21T10:35:51.981Z,9.27
2022-10-21T10:38:36.413Z,9.93
2022-10-21T10:41:07.258Z,9.38
2022-10-21T10:43:37.182Z,9.93
2022-10-21T10:46:07.324Z,9.98
2022-10-21T10:48:34.960Z,9.68
2022-10-21T10:51:07.382Z,10.15
2022-10-21T10:53:38.504Z,10.27
2022-10-21T10:56:10.973Z,9.98
2022-10-21T10:58:42.580Z,10.32
2022-10-21T11:01:17.238Z,10.90
2022-10-21T11:03:52.067Z,10.20
2022-10-21T11:06:27.737Z,11.02
2022-10-21T11:08:57.665Z,10.85
2022-10-21T11:11:30.813Z,9.90
2022-10-21T11:13:57.842Z,9.63
2022-10-21T11:17:00.020Z,9.90
2022-10-21T11:19:58.022Z,9.98
2022-10-21T11:22:32.286Z,10.32
2022-10-21T11:25:18.574Z,10.73
2022-10-21T11:27:53.602Z,9.13
2022-10-21T11:30:23.864Z,9.93
2022-10-21T11:33:21.056Z,9.93
2022-10-21T11:35:48.655Z,9.50
2022-10-21T11:38:45.912Z,10.40
2022-10-21T11:44:26.078Z,10.35
2022-10-21T11:47:09.225Z,10.27
2022-10-21T11:50:03.640Z,10.70
2022-10-21T11:52:46.647Z,10.60
2022-10-21T11:55:21.451Z,9.73
2022-10-21T11:57:54.402Z,10.20
2022-10-21T12:00:24.691Z,10.30
2022-10-21T12:03:26.593Z,10.38
2022-10-21T12:06:00.099Z,10.20
2022-10-21T12:08:30.564Z,11.02
2022-10-21T12:11:05.288Z,10.90
2022-10-21T12:13:39.994Z,10.30
2022-10-21T12:16:10.462Z,10.88
2022-10-21T12:18:43.951Z,11.05
2022-10-21T12:21:16.439Z,10.73
2022-10-21T12:23:44.692Z,11.15
2022-10-21T12:26:24.574Z,10.45
2022-10-21T12:29:11.871Z,11.63
2022-10-21T12:31:39.774Z,11.00
2022-10-21T12:34:10.289Z,11.10
2022-10-21T12:36:40.305Z,10.50
2022-10-21T12:39:16.152Z,10.55
2022-10-21T12:41:46.123Z,11.32
2022-10-21T12:44:17.818Z,10.40
2022-10-21T12:46:46.933Z,11.10
2022-10-21T12:49:21.354Z,11.20
2022-10-21T12:52:06.346Z,10.38
2022-10-21T12:54:40.686Z,11.18
2022-10-21T12:57:11.692Z,10.70
2022-10-21T12:59:42.353Z,11.57
2022-10-21T13:02:21.307Z,12.10
2022-10-21T13:04:52.289Z,11.30
2022-10-21T13:07:19.458Z,10.85
2022-10-21T13:10:07.568Z,11.15
2022-10-21T13:12:34.198Z,11.88
2022-10-21T13:15:22.331Z,11.70
2022-10-21T13:17:51.930Z,11.98
2022-10-21T13:20:19.535Z,10.05
2022-10-21T13:22:49.674Z,12.25
2022-10-21T13:25:16.464Z,10.15
2022-10-21T13:27:48.650Z,11.43
2022-10-21T13:30:33.830Z,12.48
2022-10-21T13:33:01.983Z,11.30
2022-10-21T13:35:44.231Z,11.20
2022-10-21T13:38:30.780Z,11.50
2022-10-21T13:40:58.346Z,11.48
2022-10-21T13:43:29.267Z,11.27
2022-10-21T13:46:07.123Z,10.50
2022-10-21T13:48:45.711Z,11.25
2022-10-21T13:51:29.953Z,11.23
2022-10-21T13:54:04.091Z,11.80
2022-10-21T13:56:33.483Z,11.30
2022-10-21T13:59:01.298Z,11.15
2022-10-21T14:01:31.423Z,11.13
2022-10-21T14:04:15.568Z,12.10
2022-10-21T14:06:47.409Z,11.38
2022-10-21T14:09:27.855Z,11.52
2022-10-21T14:12:04.946Z,11.32
2022-10-21T14:14:33.807Z,11.65
2022-10-21T14:17:03.250Z,11.73
2022-10-21T14:19:33.039Z,11.70
2022-10-21T14:22:01.578Z,13.00
2022-10-21T14:24:34.788Z,12.10
2022-10-21T14:27:02.577Z,11.52
2022-10-21T14:29:33.173Z,11.65
2022-10-21T14:32:00.355Z,10.85
2022-10-21T14:34:30.050Z,11.05
2022-10-21T14:37:04.747Z,11.38
2022-10-21T14:39:34.512Z,11.75
2022-10-21T14:42:06.348Z,11.75
2022-10-21T14:44:33.140Z,10.77
2022-10-21T14:47:00.394Z,10.80
2022-10-21T14:49:32.052Z,11.90
2022-10-21T14:52:05.954Z,11.68
2022-10-21T14:54:45.973Z,11.32
2022-10-21T14:57:43.197Z,13.05
2022-10-21T15:00:30.419Z,12.52
2022-10-21T15:02:59.109Z,10.98
2022-10-21T15:05:48.544Z,12.77
2022-10-21T15:08:32.391Z,11.77
2022-10-21T15:11:15.705Z,11.77
2022-10-21T15:13:57.270Z,10.55
2022-10-21T15:16:27.842Z,11.35
2022-10-21T15:18:54.931Z,11.30
2022-10-21T15:21:45.853Z,11.90
2022-10-21T15:24:33.851Z,10.57
2022-10-21T15:27:01.917Z,12.48
2022-10-21T15:29:33.723Z,12.18
2022-10-21T15:32:01.294Z,12.00
2022-10-21T15:34:28.050Z,12.00
2022-10-21T15:36:55.258Z,28.02
2022-10-21T15:39:21.950Z,45.13
2022-10-21T15:41:53.626Z,24.38
2022-10-21T15:44:26.702Z,25.17
2022-10-21T15:46:59.275Z,25.23
2022-10-21T15:49:31.369Z,20.60
2022-10-21T15:51:57.969Z,16.13
2022-10-21T15:54:24.742Z,15.15
2022-10-21T15:56:53.579Z,12.57
2022-10-21T15:59:24.750Z,12.57
2022-10-21T16:01:52.175Z,11.95
2022-10-21T16:04:19.435Z,12.43
2022-10-21T16:06:48.868Z,11.63
2022-10-21T16:09:21.032Z,11.65
2022-10-21T16:11:58.931Z,11.82
2022-10-21T16:14:29.624Z,12.00
2022-10-21T16:17:01.075Z,11.65
2022-10-21T16:19:29.351Z,15.02
2022-10-21T16:21:56.374Z,13.05
2022-10-21T16:24:23.224Z,13.10
2022-10-21T16:26:50.358Z,12.63
2022-10-21T16:31:51.202Z,13.82
2022-10-21T16:34:18.496Z,13.02
2022-10-21T16:36:45.125Z,13.38
2022-10-21T16:39:18.303Z,12.90
2022-10-21T16:41:45.157Z,13.65
2022-10-21T16:44:11.879Z,13.57
2022-10-21T16:46:41.970Z,14.38
2022-10-21T16:49:13.205Z,14.85
2022-10-21T16:51:41.786Z,15.95
2022-10-21T16:54:08.651Z,15.32
2022-10-21T16:56:35.281Z,15.70
2022-10-21T16:59:01.902Z,13.77
2022-10-21T17:01:28.612Z,14.27
2022-10-21T17:03:55.528Z,16.08
2022-10-21T17:06:24.865Z,15.15
2022-10-21T17:08:53.655Z,15.10
2022-10-21T17:11:25.297Z,17.95
2022-10-21T17:13:53.130Z,18.95
2022-10-21T17:16:20.360Z,16.48
2022-10-21T17:18:48.213Z,15.05
2022-10-21T17:21:32.406Z,15.75
2022-10-21T17:24:01.369Z,15.32
2022-10-21T17:26:30.223Z,15.25
2022-10-21T17:28:58.158Z,15.30
2022-10-21T17:31:27.349Z,14.48
2022-10-21T17:33:56.698Z,12.93
2022-10-21T17:36:23.445Z,14.75
2022-10-21T17:38:50.223Z,17.40
2022-10-21T17:41:20.347Z,18.77
2022-10-21T17:43:47.842Z,22.38
2022-10-21T17:46:20.408Z,22.10
2022-10-21T17:48:51.907Z,25.73
2022-10-21T17:51:19.090Z,20.17
2022-10-21T17:53:49.898Z,18.25
2022-10-21T17:56:20.470Z,18.50
2022-10-21T17:58:51.654Z,17.38
2022-10-21T18:01:18.371Z,16.48
2022-10-21T18:03:45.350Z,16.58
2022-10-21T18:06:13.895Z,16.50
2022-10-21T18:08:41.097Z,16.90
2022-10-21T18:11:12.703Z,16.05
2022-10-21T18:13:43.188Z,16.38
2022-10-21T18:16:14.130Z,16.73
2022-10-21T18:21:11.768Z,17.08
2022-10-21T18:23:40.470Z,15.52
2022-10-21T18:26:11.125Z,15.15
2022-10-21T18:28:37.804Z,15.38
2022-10-21T18:31:06.026Z,14.68
2022-10-21T18:33:33.320Z,15.68
2022-10-21T18:36:09.812Z,16.92
2022-10-21T18:38:36.759Z,15.43
2022-10-21T18:41:18.905Z,16.27
2022-10-21T18:43:49.855Z,16.40
2022-10-21T18:46:16.998Z,15.43
2022-10-21T18:48:43.598Z,16.15
2022-10-21T18:51:12.706Z,16.58
2022-10-21T18:53:39.842Z,17.20
2022-10-21T18:56:08.633Z,16.00
2022-10-21T18:58:36.424Z,17.05
2022-10-21T19:01:03.774Z,16.58
2022-10-21T19:03:30.755Z,18.00
2022-10-21T19:05:57.769Z,16.73
2022-10-21T19:08:24.458Z,18.02
2022-10-21T19:10:51.095Z,17.27
2022-10-21T19:13:17.749Z,17.20
2022-10-21T19:15:44.421Z,17.38
2022-10-21T19:18:11.903Z,17.17
2022-10-21T19:20:40.141Z,17.35
2022-10-21T19:23:07.655Z,16.20
2022-10-21T19:25:34.406Z,16.42
2022-10-21T19:28:01.071Z,16.63
2022-10-21T19:30:27.744Z,17.35
2022-10-21T19:32:54.388Z,15.65
2022-10-21T19:35:21.103Z,17.45
2022-10-21T19:37:47.700Z,17.40
2022-10-21T19:40:14.351Z,16.92
2022-10-21T19:42:41.805Z,16.63
2022-10-21T19:45:10.558Z,16.33
2022-10-21T19:47:37.899Z,16.65
2022-10-21T19:50:04.952Z,16.58
2022-10-21T19:52:31.621Z,17.38
2022-10-21T19:54:58.167Z,17.33
2022-10-21T19:57:24.852Z,17.00
2022-10-21T19:59:51.439Z,15.88
2022-10-21T20:02:18.208Z,17.00
2022-10-21T20:04:44.887Z,17.67
2022-10-21T20:07:11.671Z,17.55
2022-10-21T20:09:40.737Z,17.02
2022-10-21T20:12:07.343Z,18.67
2022-10-21T20:14:33.955Z,19.05
2022-10-21T20:17:00.515Z,17.60
2022-10-21T20:19:27.131Z,19.33
2022-10-21T20:21:53.865Z,17.88
2022-10-21T20:24:20.438Z,17.88
2022-10-21T20:26:51.103Z,18.08
2022-10-21T20:29:18.983Z,17.52
2022-10-21T20:31:46.444Z,16.67
2022-10-21T20:34:13.823Z,16.50
2022-10-21T20:36:40.447Z,15.75
2022-10-21T20:39:07.221Z,16.45
2022-10-21T20:41:37.240Z,16.73
2022-10-21T20:44:05.998Z,16.50
2022-10-21T20:46:35.205Z,16.90
2022-10-21T20:49:04.125Z,16.70
2022-10-21T20:51:31.158Z,15.20
2022-10-21T20:54:01.882Z,16.25
2022-10-21T20:56:30.766Z,16.92
2022-10-21T20:58:57.980Z,17.67
2022-10-21T21:01:28.038Z,15.48
2022-10-21T21:03:57.361Z,15.93
2022-10-21T21:06:24.529Z,16.02
2022-10-21T21:09:14.692Z,15.57
2022-10-21T21:11:38.582Z,15.95
2022-10-21T21:14:05.437Z,16.77
2022-10-21T21:16:32.048Z,16.60
2022-10-21T21:19:03.298Z,15.50
2022-10-21T21:21:32.102Z,16.67
2022-10-21T21:23:58.733Z,16.35
2022-10-21T21:26:28.774Z,17.52
2022-10-21T21:28:55.577Z,15.60
2022-10-21T21:31:24.531Z,16.50
2022-10-21T21:33:51.531Z,16.20
2022-10-21T21:36:20.465Z,15.68
2022-10-21T21:38:47.578Z,17.33
2022-10-21T21:41:16.597Z,16.85
2022-10-21T21:43:47.824Z,16.83
2022-10-21T21:46:22.729Z,17.48
2022-10-21T21:48:54.874Z,18.55
2022-10-21T21:51:24.067Z,17.38
2022-10-21T21:53:51.024Z,17.48
2022-10-21T21:56:19.394Z,17.88
2022-10-21T21:58:51.293Z,16.67
2022-10-21T22:01:20.745Z,16.65
2022-10-21T22:03:49.237Z,17.05
2022-10-21T22:06:18.077Z,16.88
2022-10-21T22:08:45.771Z,16.77
2022-10-21T22:11:17.186Z,17.48
2022-10-21T22:13:47.327Z,17.13
2022-10-21T22:16:16.102Z,17.83
2022-10-21T22:18:43.227Z,17.38
2022-10-21T22:21:16.628Z,16.90
2022-10-21T22:23:44.503Z,16.98
2022-10-21T22:26:12.581Z,16.58
2022-10-21T22:28:39.614Z,15.98
2022-10-21T22:31:08.969Z,16.70
2022-10-21T22:33:35.827Z,17.90
2022-10-21T22:36:03.390Z,18.17
2022-10-21T22:38:30.015Z,17.00
2022-10-21T22:40:58.807Z,17.17
2022-10-21T22:43:26.260Z,17.92
2022-10-21T22:45:57.600Z,16.58
2022-10-21T22:48:36.499Z,17.45
2022-10-21T22:51:03.345Z,17.33
2022-10-21T22:53:29.945Z,16.48
2022-10-21T22:55:56.525Z,16.92
2022-10-21T22:58:23.302Z,16.27
2022-10-21T23:00:51.217Z,17.08
2022-10-21T23:03:19.463Z,18.02
2022-10-21T23:05:48.870Z,18.40
2022-10-21T23:08:17.702Z,16.10
2022-10-21T23:10:46.679Z,18.40
2022-10-21T23:13:13.263Z,17.45
2022-10-21T23:15:40.031Z,17.75
2022-10-21T23:18:06.616Z,18.30
2022-10-21T23:20:33.213Z,17.83
2022-10-21T23:23:00.104Z,17.48
2022-10-21T23:25:27.158Z,17.77
2022-10-21T23:27:54.518Z,16.48
2022-10-21T23:30:21.189Z,15.60
2022-10-21T23:32:47.831Z,17.45
2022-10-21T23:35:15.873Z,17.23
2022-10-21T23:37:43.266Z,17.65
2022-10-21T23:40:10.945Z,18.08
2022-10-21T23:42:41.910Z,18.20
2022-10-21T23:45:11.202Z,17.48
2022-10-21T23:47:39.285Z,18.13
2022-10-21T23:50:09.302Z,17.33
2022-10-21T23:52:36.515Z,16.20
2022-10-21T23:55:05.974Z,19.00
2022-10-21T23:57:32.548Z,17.20
2022-10-21T23:59:59.145Z,17.77
